CheckWX is a tool to help pilots better visualize weather data.  It is not intended as a substitute for an official pre-flight weather briefing.

11:06:47 UTC

EGTK TAF
Oxford (Kidlington) Airport
Kidlington, United Kingdom
TAF EGTK 170803Z 1709/1718 35008KT 9999 FEW030

Sep-17@
09:00 UTC

Sep-17 @ 09:00 UTC

Sep-17@
18:00 UTC

Sep-17 @ 18:00 UTC

TAF EGTK 170803Z 1709/1718 35008KT 9999 FEW030
Wind
  • 350° at 8 KTS
Cloud Levels
  • Few at 3,000' AGL